Martinsburg, WV (25404)

11:07 AM EST on February 07, 2016 (GMT -0500)
Down Town Martinsburg | | Change Station
CLOSE
Current Station
Personal Weather Station
Location: Martinsburg, WV
Elevation: 443 ft
Nearby Weather Stations

Elev 443 ft 39.46 °N, 77.96 °W | Updated 6 minutes ago

Clear
Clear
39.2 °F
Feels Like 39 °F
N
1.7
Wind Variable Wind from WNW

Today
High -- | Low -- °F
--% Chance of Precip.
Yesterday
High -- | Low -- °F
Precip. -- in
Pressure 30.18 in
Visibility 10.0 miles
Clouds Clear
Windchill 39 °F
Dew Point 26 °F
Humidity 59%
Rainfall 0.00 in
Snow Depth Not available.
7:13 AM 5:38 PM
Waning Crescent, 1% visible
METAR KMRB 071553Z 00000KT 10SM CLR 02/M06 A3016 RMK AO2 SLP219 T00171056
Pressure 30.18 in
Visibility 10.0 miles
Clouds Clear
Windchill 39 °F
Dew Point 26 °F
Humidity 59%
Rainfall 0.00 in
Snow Depth Not available.
7:13 AM 5:38 PM
Waning Crescent, 1% visible
METAR KMRB 071553Z 00000KT 10SM CLR 02/M06 A3016 RMK AO2 SLP219 T00171056

10-Day Weather Forecast

Almanac

Astronomy

Feb. 07, 2016 Rise Set
Actual Time
Civil Twilight
Nautical Twilight
Astronomical Twilight
Moon
Length of Visible Light
Length of Day
Tomorrow will be .
, % of the Moon is Illuminated

Today's Extremes

State Highs State Lows

Community

WunderPhotos

Upload Photos

1,891,218 photos uploaded!

WunderBlog® & News

Nearby

Air Quality

  Air Quality AQ Index Pollutant
Not available.

Snow Depth

Station Depth Elevation

Earthquake Activity

City Distance Mag. Time & Date
Minimum magnitude displayed is 2.5.

Coastal Water Temperatures

Place Temperature

Stations

Nearby Weather Stations

Station Location Temp. Windchill Dew Point Humidity Wind Precip. Elev Updated Type
                   

Watches & Warnings

There are currently no watches in effect.